Crary Mills, New York
Current Conditions -  °F | °C
As of 2:53 PM on Thursday 30 Oct 2014 (Local Time) from KMSS Reporting Station
Overcast Overcast  
Wind Chill: 40°   Ceiling: 3700
Heat Index: 45°   Visibility: 10mi
Dew Point: 32°   Wind: 10mph
Humidity: 60%   Direction: 270°W
Pressure: 30"   Gusts: NA
Location:  44.5792°N, 75.1592°W
Report Text: KMSS 301853Z AUTO 27009KT 10SM OVC037 07/00 A3000 RMK AO2 SLP163 T00720000
Loading
Personal Weather Stations






























Interactive Weather Map
Tropical Storm Tracking
New forecast layout! Learn more

10-Day Weather Forecast

Advertisements
Track Severe Weather on mobile